Prince, Canada
Current Conditions -  °F | °C
As of 8:00 PM on Wednesday 22 Oct 2014 (Local Time) from CYQW Reporting Station
Clear Clear  
Wind Chill: 39°   Ceiling: Unl
Heat Index: 43°   Visibility: 9mi
Dew Point: 36°   Wind: 7mph
Humidity: 76%   Direction: 90°E
Pressure: 29.75"   Gusts: NA
Location:  52.97°N, 108.38°W
Report Text: CYQW 230200Z AUTO 09006KT 9SM CLR 06/02 A2975 RMK SLP094
Loading
Personal Weather Stations






























Interactive Weather Map
Tropical Storm Tracking
New forecast layout! Learn more

10-Day Weather Forecast

Advertisements
Track Severe Weather on mobile